CheckWX is a tool to help pilots better visualize weather data.  It is not intended as a substitute for an official pre-flight weather briefing.

01:04:32 UTC

F17 METAR
Center Municipal Airport
Center, Texas, USA
Current

10 mins ago

KF17 240055Z AUTO 00000KT 10SM CLR 17/00 A2990 RMK AO2 T01721004
Observed
Feb-24 @ 00:55 UTC
Visibility
10 SM
Flight Rules
VFR
Cloud Levels
  • Clear skies
Temperature
17°C / 63°F
Dewpoint
-0°C / 32°F
Humidity
32%
Altimeter
29.9" Hg
Pressure
1012.52 hPa
Previous

30 mins ago

KF17 240035Z AUTO 24004KT 10SM CLR 18/M01 A2989 RMK AO2 T01751006
Observed
Feb-24 @ 00:35 UTC
Wind
  • 240° at 4 KTS
Visibility
10 SM
Flight Rules
VFR
Cloud Levels
  • Clear skies
Temperature
18°C / 64°F
Dewpoint
-1°C / 30°F
Humidity
28%
Altimeter
29.89" Hg
Pressure
1012.22 hPa
Previous

50 mins ago

KF17 240015Z AUTO 22003KT 10SM CLR 18/M02 A2989 RMK AO2 T01821018
Observed
Feb-24 @ 00:15 UTC
Wind
  • 220° at 3 KTS
Visibility
10 SM
Flight Rules
VFR
Cloud Levels
  • Clear skies
Temperature
18°C / 64°F
Dewpoint
-2°C / 28°F
Humidity
26%
Altimeter
29.89" Hg
Pressure
1012.22 hPa